Terminal Aerodrome Forecast
Issued by NWS Shreveport, LA

Home | Current Version | Previous Version | Text Only | Print | Product List | Glossary On
Versions: 1 2 3 4 5 6 7 8 9 10 11 12 13 14 15 16 17 18 19 20 21 22
000
FTUS44 KSHV 301145
TAFLFK
TAF
KLFK 301145Z 3012/3112 21006KT P6SM OVC010
     FM301500 24005KT 6SM BR VCTS BKN007 OVC040CB
      TEMPO 3015/3018 VRB20G40KT 1SM +TSRA BKN020CB
     FM301800 27007KT 5SM -TSRA SCT010 BKN050CB
     FM302100 30006KT P6SM SCT050=

USA.gov is the U.S. government's official web portal to all federal, state and local government web resources and services.